sensor_id;sensor_type;location;lat;lon;timestamp;temperature;humidity
14093;DHT22;7123;49.468;10.992;2022-09-19T00:01:44;7.50;99.90
14093;DHT22;7123;49.468;10.992;2022-09-19T00:04:20;7.50;99.90
14093;DHT22;7123;49.468;10.992;2022-09-19T00:06:49;7.40;99.90
14093;DHT22;7123;49.468;10.992;2022-09-19T00:09:18;7.40;99.90
14093;DHT22;7123;49.468;10.992;2022-09-19T00:11:46;7.40;99.90
14093;DHT22;7123;49.468;10.992;2022-09-19T00:14:15;7.40;99.90
14093;DHT22;7123;49.468;10.992;2022-09-19T00:16:44;7.40;99.90
14093;DHT22;7123;49.468;10.992;2022-09-19T00:19:14;7.30;99.90
14093;DHT22;7123;49.468;10.992;2022-09-19T00:21:44;7.30;99.90
14093;DHT22;7123;49.468;10.992;2022-09-19T00:24:13;7.30;99.90
14093;DHT22;7123;49.468;10.992;2022-09-19T00:26:58;7.30;99.90
14093;DHT22;7123;49.468;10.992;2022-09-19T00:29:25;7.30;99.90
14093;DHT22;7123;49.468;10.992;2022-09-19T00:31:52;7.30;99.90
14093;DHT22;7123;49.468;10.992;2022-09-19T00:34:19;7.30;99.90
14093;DHT22;7123;49.468;10.992;2022-09-19T00:36:47;7.30;99.90
14093;DHT22;7123;49.468;10.992;2022-09-19T00:39:16;7.40;99.90
14093;DHT22;7123;49.468;10.992;2022-09-19T00:41:43;7.40;99.90
14093;DHT22;7123;49.468;10.992;2022-09-19T00:47:02;7.40;99.90
14093;DHT22;7123;49.468;10.992;2022-09-19T00:49:34;7.40;99.90
14093;DHT22;7123;49.468;10.992;2022-09-19T00:52:07;7.50;99.90
14093;DHT22;7123;49.468;10.992;2022-09-19T00:54:40;7.50;99.90
14093;DHT22;7123;49.468;10.992;2022-09-19T00:57:12;7.40;99.90
14093;DHT22;7123;49.468;10.992;2022-09-19T00:59:44;7.40;99.90
14093;DHT22;7123;49.468;10.992;2022-09-19T01:02:13;7.40;99.90
14093;DHT22;7123;49.468;10.992;2022-09-19T01:04:41;7.40;99.90
14093;DHT22;7123;49.468;10.992;2022-09-19T01:10:17;7.40;99.90
14093;DHT22;7123;49.468;10.992;2022-09-19T01:13:09;7.40;99.90
14093;DHT22;7123;49.468;10.992;2022-09-19T01:16:06;7.50;99.90
14093;DHT22;7123;49.468;10.992;2022-09-19T01:18:45;7.50;99.90
14093;DHT22;7123;49.468;10.992;2022-09-19T01:21:23;7.60;99.90
14093;DHT22;7123;49.468;10.992;2022-09-19T01:29:56;7.50;99.90
14093;DHT22;7123;49.468;10.992;2022-09-19T01:32:29;7.50;99.90
14093;DHT22;7123;49.468;10.992;2022-09-19T01:35:03;7.50;99.90
14093;DHT22;7123;49.468;10.992;2022-09-19T01:37:36;7.50;99.90
14093;DHT22;7123;49.468;10.992;2022-09-19T01:40:07;7.60;99.90
14093;DHT22;7123;49.468;10.992;2022-09-19T01:42:35;7.60;99.90
14093;DHT22;7123;49.468;10.992;2022-09-19T01:45:02;7.60;99.90
14093;DHT22;7123;49.468;10.992;2022-09-19T01:47:43;7.60;99.90
14093;DHT22;7123;49.468;10.992;2022-09-19T01:58:29;7.70;99.90
14093;DHT22;7123;49.468;10.992;2022-09-19T02:01:14;7.80;99.90
14093;DHT22;7123;49.468;10.992;2022-09-19T02:04:09;7.80;99.90
14093;DHT22;7123;49.468;10.992;2022-09-19T02:09:43;7.80;99.90
14093;DHT22;7123;49.468;10.992;2022-09-19T02:12:15;7.80;99.90
14093;DHT22;7123;49.468;10.992;2022-09-19T02:14:46;7.70;99.90
14093;DHT22;7123;49.468;10.992;2022-09-19T02:17:28;7.70;99.90
14093;DHT22;7123;49.468;10.992;2022-09-19T02:20:07;7.70;99.90
14093;DHT22;7123;49.468;10.992;2022-09-19T02:22:40;7.70;99.90
14093;DHT22;7123;49.468;10.992;2022-09-19T02:25:13;7.70;99.90
14093;DHT22;7123;49.468;10.992;2022-09-19T02:27:45;7.70;99.90
14093;DHT22;7123;49.468;10.992;2022-09-19T02:30:18;7.80;99.90
14093;DHT22;7123;49.468;10.992;2022-09-19T02:32:47;7.80;99.90
14093;DHT22;7123;49.468;10.992;2022-09-19T02:35:27;7.80;99.90
14093;DHT22;7123;49.468;10.992;2022-09-19T02:38:16;7.80;99.90
14093;DHT22;7123;49.468;10.992;2022-09-19T02:41:12;7.90;99.90
14093;DHT22;7123;49.468;10.992;2022-09-19T02:43:54;7.90;99.90
14093;DHT22;7123;49.468;10.992;2022-09-19T02:46:42;7.90;99.90
14093;DHT22;7123;49.468;10.992;2022-09-19T02:49:20;7.90;99.90
14093;DHT22;7123;49.468;10.992;2022-09-19T02:51:59;7.90;99.90
14093;DHT22;7123;49.468;10.992;2022-09-19T02:54:31;8.00;99.90
14093;DHT22;7123;49.468;10.992;2022-09-19T02:57:04;8.00;99.90
14093;DHT22;7123;49.468;10.992;2022-09-19T02:59:36;8.00;99.90
14093;DHT22;7123;49.468;10.992;2022-09-19T03:02:24;8.10;99.90
14093;DHT22;7123;49.468;10.992;2022-09-19T03:05:05;8.10;99.90
14093;DHT22;7123;49.468;10.992;2022-09-19T03:07:46;8.10;99.90
14093;DHT22;7123;49.468;10.992;2022-09-19T03:10:24;8.10;99.90
14093;DHT22;7123;49.468;10.992;2022-09-19T03:12:58;8.20;99.90
14093;DHT22;7123;49.468;10.992;2022-09-19T03:15:59;8.20;99.90
14093;DHT22;7123;49.468;10.992;2022-09-19T03:18:29;8.20;99.90
14093;DHT22;7123;49.468;10.992;2022-09-19T03:21:02;8.20;99.90
14093;DHT22;7123;49.468;10.992;2022-09-19T03:23:46;8.20;99.90
14093;DHT22;7123;49.468;10.992;2022-09-19T03:26:21;8.20;99.90
14093;DHT22;7123;49.468;10.992;2022-09-19T03:28:48;8.30;99.90
14093;DHT22;7123;49.468;10.992;2022-09-19T03:31:15;8.30;99.90
14093;DHT22;7123;49.468;10.992;2022-09-19T03:33:42;8.30;99.90
14093;DHT22;7123;49.468;10.992;2022-09-19T03:36:09;8.30;99.90
14093;DHT22;7123;49.468;10.992;2022-09-19T03:38:38;8.20;99.90
14093;DHT22;7123;49.468;10.992;2022-09-19T03:41:12;8.20;99.90
14093;DHT22;7123;49.468;10.992;2022-09-19T03:43:39;8.30;99.90
14093;DHT22;7123;49.468;10.992;2022-09-19T03:46:10;8.20;99.90
14093;DHT22;7123;49.468;10.992;2022-09-19T03:48:43;8.30;99.90
14093;DHT22;7123;49.468;10.992;2022-09-19T03:51:15;8.30;99.90
14093;DHT22;7123;49.468;10.992;2022-09-19T03:53:42;8.30;99.90
14093;DHT22;7123;49.468;10.992;2022-09-19T03:56:13;8.30;99.90
14093;DHT22;7123;49.468;10.992;2022-09-19T03:58:41;8.30;99.90
14093;DHT22;7123;49.468;10.992;2022-09-19T04:01:08;8.30;99.90
14093;DHT22;7123;49.468;10.992;2022-09-19T04:03:36;8.40;99.90
14093;DHT22;7123;49.468;10.992;2022-09-19T04:06:03;8.40;99.90
14093;DHT22;7123;49.468;10.992;2022-09-19T04:08:31;8.40;99.90
14093;DHT22;7123;49.468;10.992;2022-09-19T04:10:58;8.80;99.90
14093;DHT22;7123;49.468;10.992;2022-09-19T04:13:25;8.50;99.90
14093;DHT22;7123;49.468;10.992;2022-09-19T04:15:56;8.50;99.90
14093;DHT22;7123;49.468;10.992;2022-09-19T04:18:23;8.50;99.90
14093;DHT22;7123;49.468;10.992;2022-09-19T04:20:50;8.50;99.90
14093;DHT22;7123;49.468;10.992;2022-09-19T04:23:18;8.50;99.90
14093;DHT22;7123;49.468;10.992;2022-09-19T04:25:45;8.50;99.90
14093;DHT22;7123;49.468;10.992;2022-09-19T04:28:14;8.50;99.90
14093;DHT22;7123;49.468;10.992;2022-09-19T04:30:43;8.50;99.90
14093;DHT22;7123;49.468;10.992;2022-09-19T04:33:13;8.50;99.90
14093;DHT22;7123;49.468;10.992;2022-09-19T04:35:40;8.60;99.90
14093;DHT22;7123;49.468;10.992;2022-09-19T04:38:11;8.60;99.90
14093;DHT22;7123;49.468;10.992;2022-09-19T04:40:41;8.70;99.90
14093;DHT22;7123;49.468;10.992;2022-09-19T04:43:09;8.60;99.90
14093;DHT22;7123;49.468;10.992;2022-09-19T04:45:36;8.60;99.90
14093;DHT22;7123;49.468;10.992;2022-09-19T04:48:04;8.60;99.90
14093;DHT22;7123;49.468;10.992;2022-09-19T04:50:33;8.60;99.90
14093;DHT22;7123;49.468;10.992;2022-09-19T04:53:00;8.60;99.90
14093;DHT22;7123;49.468;10.992;2022-09-19T04:55:27;8.60;99.90
14093;DHT22;7123;49.468;10.992;2022-09-19T04:57:55;8.60;99.90
14093;DHT22;7123;49.468;10.992;2022-09-19T05:00:23;8.60;99.90
14093;DHT22;7123;49.468;10.992;2022-09-19T05:03:13;8.60;99.90
14093;DHT22;7123;49.468;10.992;2022-09-19T05:05:44;8.60;99.90
14093;DHT22;7123;49.468;10.992;2022-09-19T05:08:18;8.70;99.90
14093;DHT22;7123;49.468;10.992;2022-09-19T05:10:46;8.70;99.90
14093;DHT22;7123;49.468;10.992;2022-09-19T05:13:13;8.70;99.90
14093;DHT22;7123;49.468;10.992;2022-09-19T05:15:40;8.70;99.90
14093;DHT22;7123;49.468;10.992;2022-09-19T05:18:09;8.70;99.90
14093;DHT22;7123;49.468;10.992;2022-09-19T05:20:39;8.80;99.90
14093;DHT22;7123;49.468;10.992;2022-09-19T05:23:06;8.80;99.90
14093;DHT22;7123;49.468;10.992;2022-09-19T05:25:37;8.80;99.90
14093;DHT22;7123;49.468;10.992;2022-09-19T05:28:05;8.80;99.90
14093;DHT22;7123;49.468;10.992;2022-09-19T05:30:33;8.80;99.90
14093;DHT22;7123;49.468;10.992;2022-09-19T05:33:01;8.80;99.90
14093;DHT22;7123;49.468;10.992;2022-09-19T05:35:31;8.90;99.90
14093;DHT22;7123;49.468;10.992;2022-09-19T05:37:58;8.90;99.90
14093;DHT22;7123;49.468;10.992;2022-09-19T05:40:25;8.90;99.90
14093;DHT22;7123;49.468;10.992;2022-09-19T05:42:52;8.90;99.90
14093;DHT22;7123;49.468;10.992;2022-09-19T05:45:26;8.90;99.90
14093;DHT22;7123;49.468;10.992;2022-09-19T05:48:01;8.90;99.90
14093;DHT22;7123;49.468;10.992;2022-09-19T05:50:28;9.00;99.90
14093;DHT22;7123;49.468;10.992;2022-09-19T05:52:54;8.90;99.90
14093;DHT22;7123;49.468;10.992;2022-09-19T05:55:40;9.00;99.90
14093;DHT22;7123;49.468;10.992;2022-09-19T05:58:08;8.90;99.90
14093;DHT22;7123;49.468;10.992;2022-09-19T06:00:36;9.00;99.90
14093;DHT22;7123;49.468;10.992;2022-09-19T06:03:05;9.00;99.90
14093;DHT22;7123;49.468;10.992;2022-09-19T06:05:40;9.00;99.90
14093;DHT22;7123;49.468;10.992;2022-09-19T06:08:08;9.00;99.90
14093;DHT22;7123;49.468;10.992;2022-09-19T06:10:37;9.00;99.90
14093;DHT22;7123;49.468;10.992;2022-09-19T06:13:06;9.00;99.90
14093;DHT22;7123;49.468;10.992;2022-09-19T06:15:33;9.00;99.90
14093;DHT22;7123;49.468;10.992;2022-09-19T06:18:00;9.00;99.90
14093;DHT22;7123;49.468;10.992;2022-09-19T06:20:27;9.00;99.90
14093;DHT22;7123;49.468;10.992;2022-09-19T06:22:58;9.10;99.90
14093;DHT22;7123;49.468;10.992;2022-09-19T06:25:32;9.10;99.90
14093;DHT22;7123;49.468;10.992;2022-09-19T06:28:02;9.10;99.90
14093;DHT22;7123;49.468;10.992;2022-09-19T06:30:31;9.10;99.90
14093;DHT22;7123;49.468;10.992;2022-09-19T06:32:58;9.10;99.90
14093;DHT22;7123;49.468;10.992;2022-09-19T06:35:25;9.20;99.90
14093;DHT22;7123;49.468;10.992;2022-09-19T06:38:00;9.20;99.90
14093;DHT22;7123;49.468;10.992;2022-09-19T06:40:28;9.30;99.90
14093;DHT22;7123;49.468;10.992;2022-09-19T06:43:05;9.30;99.90
14093;DHT22;7123;49.468;10.992;2022-09-19T06:45:34;9.30;99.90
14093;DHT22;7123;49.468;10.992;2022-09-19T06:48:06;9.40;99.90
14093;DHT22;7123;49.468;10.992;2022-09-19T06:50:34;9.40;99.90
14093;DHT22;7123;49.468;10.992;2022-09-19T06:53:01;9.40;99.90
14093;DHT22;7123;49.468;10.992;2022-09-19T06:55:28;9.50;99.90
14093;DHT22;7123;49.468;10.992;2022-09-19T06:57:57;9.50;99.90
14093;DHT22;7123;49.468;10.992;2022-09-19T07:00:27;9.50;99.90
14093;DHT22;7123;49.468;10.992;2022-09-19T07:03:08;9.50;99.90
14093;DHT22;7123;49.468;10.992;2022-09-19T07:05:37;9.50;99.90
14093;DHT22;7123;49.468;10.992;2022-09-19T07:08:05;9.50;99.90
14093;DHT22;7123;49.468;10.992;2022-09-19T07:10:32;9.50;99.90
14093;DHT22;7123;49.468;10.992;2022-09-19T07:13:00;9.50;99.90
14093;DHT22;7123;49.468;10.992;2022-09-19T07:15:29;9.50;99.90
14093;DHT22;7123;49.468;10.992;2022-09-19T07:17:56;9.50;99.90
14093;DHT22;7123;49.468;10.992;2022-09-19T07:20:24;9.50;99.90
14093;DHT22;7123;49.468;10.992;2022-09-19T07:23:05;9.50;99.90
14093;DHT22;7123;49.468;10.992;2022-09-19T07:25:39;9.50;99.90
14093;DHT22;7123;49.468;10.992;2022-09-19T07:28:09;9.50;99.90
14093;DHT22;7123;49.468;10.992;2022-09-19T07:30:36;9.50;99.90
14093;DHT22;7123;49.468;10.992;2022-09-19T07:33:05;9.60;99.90
14093;DHT22;7123;49.468;10.992;2022-09-19T07:35:35;9.60;99.90
14093;DHT22;7123;49.468;10.992;2022-09-19T07:38:04;9.70;99.90
14093;DHT22;7123;49.468;10.992;2022-09-19T07:40:32;9.70;99.90
14093;DHT22;7123;49.468;10.992;2022-09-19T07:43:01;9.70;99.90
14093;DHT22;7123;49.468;10.992;2022-09-19T07:45:35;9.80;99.90
14093;DHT22;7123;49.468;10.992;2022-09-19T07:48:03;9.90;99.90
14093;DHT22;7123;49.468;10.992;2022-09-19T07:50:31;9.90;99.90
14093;DHT22;7123;49.468;10.992;2022-09-19T07:53:04;10.00;99.90
14093;DHT22;7123;49.468;10.992;2022-09-19T07:55:32;10.00;99.90
14093;DHT22;7123;49.468;10.992;2022-09-19T07:57:59;10.00;99.90
14093;DHT22;7123;49.468;10.992;2022-09-19T08:00:27;10.10;99.90
14093;DHT22;7123;49.468;10.992;2022-09-19T08:02:55;10.10;99.90
14093;DHT22;7123;49.468;10.992;2022-09-19T08:05:23;10.20;99.90
14093;DHT22;7123;49.468;10.992;2022-09-19T08:07:50;10.20;99.90
14093;DHT22;7123;49.468;10.992;2022-09-19T08:10:18;10.30;99.90
14093;DHT22;7123;49.468;10.992;2022-09-19T08:12:47;10.30;99.90
14093;DHT22;7123;49.468;10.992;2022-09-19T08:15:16;10.30;99.90
14093;DHT22;7123;49.468;10.992;2022-09-19T08:18:05;10.30;99.90
14093;DHT22;7123;49.468;10.992;2022-09-19T08:20:33;10.30;99.90
14093;DHT22;7123;49.468;10.992;2022-09-19T08:23:03;10.40;99.90
14093;DHT22;7123;49.468;10.992;2022-09-19T08:25:32;10.40;99.90
14093;DHT22;7123;49.468;10.992;2022-09-19T08:27:59;10.40;99.90
14093;DHT22;7123;49.468;10.992;2022-09-19T08:30:26;10.50;99.90
14093;DHT22;7123;49.468;10.992;2022-09-19T08:32:53;10.60;99.90
14093;DHT22;7123;49.468;10.992;2022-09-19T08:35:23;10.60;99.90
14093;DHT22;7123;49.468;10.992;2022-09-19T08:38:00;10.60;99.90
14093;DHT22;7123;49.468;10.992;2022-09-19T08:40:35;10.70;99.90
14093;DHT22;7123;49.468;10.992;2022-09-19T08:46:49;10.90;99.90
14093;DHT22;7123;49.468;10.992;2022-09-19T08:54:37;11.20;99.90
14093;DHT22;7123;49.468;10.992;2022-09-19T08:57:28;11.30;99.90
14093;DHT22;7123;49.468;10.992;2022-09-19T09:00:00;11.40;99.90
14093;DHT22;7123;49.468;10.992;2022-09-19T09:05:54;11.50;99.90
14093;DHT22;7123;49.468;10.992;2022-09-19T09:11:09;11.40;99.90
14093;DHT22;7123;49.468;10.992;2022-09-19T09:21:42;11.50;99.90
14093;DHT22;7123;49.468;10.992;2022-09-19T09:24:26;11.40;99.90
14093;DHT22;7123;49.468;10.992;2022-09-19T09:27:02;11.40;99.90
14093;DHT22;7123;49.468;10.992;2022-09-19T09:29:34;11.40;99.90
14093;DHT22;7123;49.468;10.992;2022-09-19T09:32:06;11.40;99.90
14093;DHT22;7123;49.468;10.992;2022-09-19T09:34:49;11.50;99.90
14093;DHT22;7123;49.468;10.992;2022-09-19T09:37:37;11.50;99.90
14093;DHT22;7123;49.468;10.992;2022-09-19T09:42:47;11.60;99.90
14093;DHT22;7123;49.468;10.992;2022-09-19T09:45:50;11.60;99.90
14093;DHT22;7123;49.468;10.992;2022-09-19T09:48:22;11.60;99.90
14093;DHT22;7123;49.468;10.992;2022-09-19T09:54:08;11.60;99.90
14093;DHT22;7123;49.468;10.992;2022-09-19T10:00:00;11.70;99.90
14093;DHT22;7123;49.468;10.992;2022-09-19T10:05:54;11.80;99.90
14093;DHT22;7123;49.468;10.992;2022-09-19T10:08:26;11.90;99.90
14093;DHT22;7123;49.468;10.992;2022-09-19T10:11:18;12.00;99.90
14093;DHT22;7123;49.468;10.992;2022-09-19T10:14:07;12.10;99.90
14093;DHT22;7123;49.468;10.992;2022-09-19T10:16:39;12.10;99.90
14093;DHT22;7123;49.468;10.992;2022-09-19T10:21:53;12.00;99.90
14093;DHT22;7123;49.468;10.992;2022-09-19T10:32:22;12.00;99.90
14093;DHT22;7123;49.468;10.992;2022-09-19T10:34:51;12.00;99.90
14093;DHT22;7123;49.468;10.992;2022-09-19T10:37:28;12.00;99.90
14093;DHT22;7123;49.468;10.992;2022-09-19T10:40:03;11.90;99.90
14093;DHT22;7123;49.468;10.992;2022-09-19T10:42:36;11.90;99.90
14093;DHT22;7123;49.468;10.992;2022-09-19T10:45:18;11.90;99.90
14093;DHT22;7123;49.468;10.992;2022-09-19T10:47:46;12.00;99.90
14093;DHT22;7123;49.468;10.992;2022-09-19T10:50:16;12.00;99.90
14093;DHT22;7123;49.468;10.992;2022-09-19T10:52:44;12.10;99.90
14093;DHT22;7123;49.468;10.992;2022-09-19T10:55:20;12.20;99.90
14093;DHT22;7123;49.468;10.992;2022-09-19T10:58:01;12.20;99.90
14093;DHT22;7123;49.468;10.992;2022-09-19T11:00:46;12.00;99.90
14093;DHT22;7123;49.468;10.992;2022-09-19T11:03:20;11.80;99.90
14093;DHT22;7123;49.468;10.992;2022-09-19T11:06:10;11.60;99.90
14093;DHT22;7123;49.468;10.992;2022-09-19T11:08:42;11.40;99.90
14093;DHT22;7123;49.468;10.992;2022-09-19T11:11:32;11.30;99.90
14093;DHT22;7123;49.468;10.992;2022-09-19T11:14:31;11.30;99.90
14093;DHT22;7123;49.468;10.992;2022-09-19T11:23:23;11.50;99.90
14093;DHT22;7123;49.468;10.992;2022-09-19T11:28:46;11.60;99.90
14093;DHT22;7123;49.468;10.992;2022-09-19T11:37:50;11.50;99.90
14093;DHT22;7123;49.468;10.992;2022-09-19T11:40:29;11.60;99.90
14093;DHT22;7123;49.468;10.992;2022-09-19T11:48:49;12.00;99.90
14093;DHT22;7123;49.468;10.992;2022-09-19T12:10:53;12.60;99.90
14093;DHT22;7123;49.468;10.992;2022-09-19T12:13:30;12.60;99.90
14093;DHT22;7123;49.468;10.992;2022-09-19T12:16:05;12.60;99.90
14093;DHT22;7123;49.468;10.992;2022-09-19T12:18:41;12.60;99.90
14093;DHT22;7123;49.468;10.992;2022-09-19T12:21:11;12.60;99.90
14093;DHT22;7123;49.468;10.992;2022-09-19T12:23:47;12.60;99.90
14093;DHT22;7123;49.468;10.992;2022-09-19T12:26:58;12.70;99.90
14093;DHT22;7123;49.468;10.992;2022-09-19T12:29:28;12.70;99.90
14093;DHT22;7123;49.468;10.992;2022-09-19T12:32:11;12.70;99.90
14093;DHT22;7123;49.468;10.992;2022-09-19T12:34:56;12.70;99.90
14093;DHT22;7123;49.468;10.992;2022-09-19T12:38:22;12.70;99.90
14093;DHT22;7123;49.468;10.992;2022-09-19T12:40:24;12.80;99.90
14093;DHT22;7123;49.468;10.992;2022-09-19T12:45:46;13.00;99.90
14093;DHT22;7123;49.468;10.992;2022-09-19T12:51:06;13.30;99.90
14093;DHT22;7123;49.468;10.992;2022-09-19T12:56:29;13.40;99.90
14093;DHT22;7123;49.468;10.992;2022-09-19T12:59:22;13.50;99.90
14093;DHT22;7123;49.468;10.992;2022-09-19T13:01:54;13.50;99.90
14093;DHT22;7123;49.468;10.992;2022-09-19T13:07:14;13.10;99.90
14093;DHT22;7123;49.468;10.992;2022-09-19T13:12:26;13.10;99.90
14093;DHT22;7123;49.468;10.992;2022-09-19T13:14:59;13.00;99.90
14093;DHT22;7123;49.468;10.992;2022-09-19T13:17:29;13.00;99.90
14093;DHT22;7123;49.468;10.992;2022-09-19T13:20:24;13.10;99.90
14093;DHT22;7123;49.468;10.992;2022-09-19T13:23:15;13.10;99.90
14093;DHT22;7123;49.468;10.992;2022-09-19T13:31:20;13.10;99.90
14093;DHT22;7123;49.468;10.992;2022-09-19T13:33:53;13.10;99.90
14093;DHT22;7123;49.468;10.992;2022-09-19T13:38:54;13.00;99.90
14093;DHT22;7123;49.468;10.992;2022-09-19T13:41:42;12.80;99.90
14093;DHT22;7123;49.468;10.992;2022-09-19T13:44:30;12.10;99.90
14093;DHT22;7123;49.468;10.992;2022-09-19T13:47:20;11.40;99.90
14093;DHT22;7123;49.468;10.992;2022-09-19T13:49:54;11.10;99.90
14093;DHT22;7123;49.468;10.992;2022-09-19T13:52:27;11.00;99.90
14093;DHT22;7123;49.468;10.992;2022-09-19T13:57:39;11.00;99.90
14093;DHT22;7123;49.468;10.992;2022-09-19T14:03:03;11.20;99.90
14093;DHT22;7123;49.468;10.992;2022-09-19T14:05:35;11.30;99.90
14093;DHT22;7123;49.468;10.992;2022-09-19T14:08:30;11.30;99.90
14093;DHT22;7123;49.468;10.992;2022-09-19T14:11:28;11.40;99.90
14093;DHT22;7123;49.468;10.992;2022-09-19T14:13:57;11.50;99.90
14093;DHT22;7123;49.468;10.992;2022-09-19T14:16:29;11.50;99.90
14093;DHT22;7123;49.468;10.992;2022-09-19T14:18:57;11.60;99.90
14093;DHT22;7123;49.468;10.992;2022-09-19T14:24:18;11.80;99.90
14093;DHT22;7123;49.468;10.992;2022-09-19T14:27:05;11.80;99.90
14093;DHT22;7123;49.468;10.992;2022-09-19T14:29:57;11.80;99.90
14093;DHT22;7123;49.468;10.992;2022-09-19T14:32:31;11.80;99.90
14093;DHT22;7123;49.468;10.992;2022-09-19T14:37:49;11.80;99.90
14093;DHT22;7123;49.468;10.992;2022-09-19T14:46:14;11.60;99.90
14093;DHT22;7123;49.468;10.992;2022-09-19T14:54:05;11.20;99.90
14093;DHT22;7123;49.468;10.992;2022-09-19T14:56:32;11.10;99.90
14093;DHT22;7123;49.468;10.992;2022-09-19T14:58:58;11.10;99.90
14093;DHT22;7123;49.468;10.992;2022-09-19T15:04:00;11.10;99.90
14093;DHT22;7123;49.468;10.992;2022-09-19T15:06:34;11.10;99.90
14093;DHT22;7123;49.468;10.992;2022-09-19T15:09:02;11.20;99.90
14093;DHT22;7123;49.468;10.992;2022-09-19T15:11:29;11.30;99.90
14093;DHT22;7123;49.468;10.992;2022-09-19T15:13:56;11.40;99.90
14093;DHT22;7123;49.468;10.992;2022-09-19T15:16:24;11.50;99.90
14093;DHT22;7123;49.468;10.992;2022-09-19T15:18:57;11.60;99.90
14093;DHT22;7123;49.468;10.992;2022-09-19T15:21:30;11.70;99.90
14093;DHT22;7123;49.468;10.992;2022-09-19T15:24:00;11.80;99.90
14093;DHT22;7123;49.468;10.992;2022-09-19T15:26:30;11.90;99.90
14093;DHT22;7123;49.468;10.992;2022-09-19T15:31:29;12.00;99.90
14093;DHT22;7123;49.468;10.992;2022-09-19T15:34:04;11.90;99.90
14093;DHT22;7123;49.468;10.992;2022-09-19T15:36:35;11.80;99.90
14093;DHT22;7123;49.468;10.992;2022-09-19T15:39:05;11.80;99.90
14093;DHT22;7123;49.468;10.992;2022-09-19T15:41:33;11.80;99.90
14093;DHT22;7123;49.468;10.992;2022-09-19T15:44:00;11.80;99.90
14093;DHT22;7123;49.468;10.992;2022-09-19T15:49:02;11.70;99.90
14093;DHT22;7123;49.468;10.992;2022-09-19T15:51:35;11.80;99.90
14093;DHT22;7123;49.468;10.992;2022-09-19T15:54:16;11.80;99.90
14093;DHT22;7123;49.468;10.992;2022-09-19T15:56:48;11.80;99.90
14093;DHT22;7123;49.468;10.992;2022-09-19T15:59:19;11.90;99.90
14093;DHT22;7123;49.468;10.992;2022-09-19T16:01:48;11.90;99.90
14093;DHT22;7123;49.468;10.992;2022-09-19T16:04:20;12.00;99.90
14093;DHT22;7123;49.468;10.992;2022-09-19T16:09:48;12.20;99.90
14093;DHT22;7123;49.468;10.992;2022-09-19T16:12:44;12.50;99.90
14093;DHT22;7123;49.468;10.992;2022-09-19T16:23:03;13.70;99.90
14093;DHT22;7123;49.468;10.992;2022-09-19T16:28:14;14.10;99.90
14093;DHT22;7123;49.468;10.992;2022-09-19T16:31:17;14.10;99.90
14093;DHT22;7123;49.468;10.992;2022-09-19T16:33:59;14.00;99.90
14093;DHT22;7123;49.468;10.992;2022-09-19T16:36:45;14.10;99.90
14093;DHT22;7123;49.468;10.992;2022-09-19T16:39:25;14.10;99.90
14093;DHT22;7123;49.468;10.992;2022-09-19T16:42:03;14.10;99.90
14093;DHT22;7123;49.468;10.992;2022-09-19T16:45:00;14.00;99.90
14093;DHT22;7123;49.468;10.992;2022-09-19T16:47:27;13.70;99.90
14093;DHT22;7123;49.468;10.992;2022-09-19T16:49:54;13.30;99.90
14093;DHT22;7123;49.468;10.992;2022-09-19T16:52:25;13.00;99.90
14093;DHT22;7123;49.468;10.992;2022-09-19T16:54:54;12.80;99.90
14093;DHT22;7123;49.468;10.992;2022-09-19T16:57:24;12.60;99.90
14093;DHT22;7123;49.468;10.992;2022-09-19T16:59:52;12.50;99.90
14093;DHT22;7123;49.468;10.992;2022-09-19T17:02:31;12.40;99.90
14093;DHT22;7123;49.468;10.992;2022-09-19T17:05:00;12.30;99.90
14093;DHT22;7123;49.468;10.992;2022-09-19T17:07:27;12.30;99.90
14093;DHT22;7123;49.468;10.992;2022-09-19T17:09:54;12.20;99.90
14093;DHT22;7123;49.468;10.992;2022-09-19T17:12:22;12.10;99.90
14093;DHT22;7123;49.468;10.992;2022-09-19T17:14:48;12.10;99.90
14093;DHT22;7123;49.468;10.992;2022-09-19T17:17:16;12.00;99.90
14093;DHT22;7123;49.468;10.992;2022-09-19T17:19:46;11.90;99.90
14093;DHT22;7123;49.468;10.992;2022-09-19T17:22:17;11.80;99.90
14093;DHT22;7123;49.468;10.992;2022-09-19T17:24:44;11.70;99.90
14093;DHT22;7123;49.468;10.992;2022-09-19T17:27:11;11.70;99.90
14093;DHT22;7123;49.468;10.992;2022-09-19T17:29:38;11.60;99.90
14093;DHT22;7123;49.468;10.992;2022-09-19T17:32:06;11.60;99.90
14093;DHT22;7123;49.468;10.992;2022-09-19T17:34:34;11.60;99.90
14093;DHT22;7123;49.468;10.992;2022-09-19T17:37:01;11.60;99.90
14093;DHT22;7123;49.468;10.992;2022-09-19T17:39:28;11.60;99.90
14093;DHT22;7123;49.468;10.992;2022-09-19T17:41:55;11.50;99.90
14093;DHT22;7123;49.468;10.992;2022-09-19T17:44:22;11.50;99.90
14093;DHT22;7123;49.468;10.992;2022-09-19T17:46:49;11.40;99.90
14093;DHT22;7123;49.468;10.992;2022-09-19T17:49:16;11.40;99.90
14093;DHT22;7123;49.468;10.992;2022-09-19T17:51:42;11.40;99.90
14093;DHT22;7123;49.468;10.992;2022-09-19T17:54:09;11.30;99.90
14093;DHT22;7123;49.468;10.992;2022-09-19T17:56:36;11.30;99.90
14093;DHT22;7123;49.468;10.992;2022-09-19T17:59:03;11.30;99.90
14093;DHT22;7123;49.468;10.992;2022-09-19T18:01:31;11.30;99.90
14093;DHT22;7123;49.468;10.992;2022-09-19T18:04:16;11.30;99.90
14093;DHT22;7123;49.468;10.992;2022-09-19T18:06:44;11.30;99.90
14093;DHT22;7123;49.468;10.992;2022-09-19T18:09:12;11.30;99.90
14093;DHT22;7123;49.468;10.992;2022-09-19T18:11:42;11.30;99.90
14093;DHT22;7123;49.468;10.992;2022-09-19T18:14:09;11.30;99.90
14093;DHT22;7123;49.468;10.992;2022-09-19T18:16:42;11.20;99.90
14093;DHT22;7123;49.468;10.992;2022-09-19T18:19:09;11.20;99.90
14093;DHT22;7123;49.468;10.992;2022-09-19T18:21:36;11.10;99.90
14093;DHT22;7123;49.468;10.992;2022-09-19T18:24:07;11.10;99.90
14093;DHT22;7123;49.468;10.992;2022-09-19T18:26:34;11.20;99.90
14093;DHT22;7123;49.468;10.992;2022-09-19T18:29:01;11.20;99.90
14093;DHT22;7123;49.468;10.992;2022-09-19T18:31:30;11.30;99.90
14093;DHT22;7123;49.468;10.992;2022-09-19T18:33:58;11.20;99.90
14093;DHT22;7123;49.468;10.992;2022-09-19T18:36:26;11.10;99.90
14093;DHT22;7123;49.468;10.992;2022-09-19T18:38:55;11.00;99.90
14093;DHT22;7123;49.468;10.992;2022-09-19T18:41:23;10.90;99.90
14093;DHT22;7123;49.468;10.992;2022-09-19T18:43:51;10.80;99.90
14093;DHT22;7123;49.468;10.992;2022-09-19T18:46:20;10.70;99.90
14093;DHT22;7123;49.468;10.992;2022-09-19T18:48:48;10.50;99.90
14093;DHT22;7123;49.468;10.992;2022-09-19T18:51:21;10.40;99.90
14093;DHT22;7123;49.468;10.992;2022-09-19T18:53:51;10.30;99.90
14093;DHT22;7123;49.468;10.992;2022-09-19T18:56:20;10.30;99.90
14093;DHT22;7123;49.468;10.992;2022-09-19T18:58:49;10.40;99.90
14093;DHT22;7123;49.468;10.992;2022-09-19T19:01:18;10.50;99.90
14093;DHT22;7123;49.468;10.992;2022-09-19T19:03:56;10.60;99.90
14093;DHT22;7123;49.468;10.992;2022-09-19T19:06:24;10.50;99.90
14093;DHT22;7123;49.468;10.992;2022-09-19T19:08:52;10.50;99.90